MMGL

Don Miguel Hidalgo Y Costilla International Airport

Guadalajara, Mexico
TAF MMGL 231642Z 2318/2424 30010KT P6SM SCT300 TX32/2322Z TN16/2412Z FM232000 24015KT P6SM SCT030 BKN200 FM240200 00000KT P6SM SCT100 BKN200 FM242000 24012KT P6SM SCT025 BKN250
Issued Valid From Valid To
Apr-23 @ 16:42 UTC
(6 hours ago)
Apr-23 @ 18:00 UTC
(5 hours ago)
Apr-25 @ 00:00 UTC
(-1 days ago)
Expired Click to View Apr-23 @ 18:00 to Apr-23 @ 20:00
TAF MMGL 231642Z 2318/2424 30010KT P6SM SCT300 TX32/2322Z TN16/2412Z
Wind Visibility Clouds
300° at 10 knots Greater than 6 miles
  • Scattered at 30,000' AGL
From Apr-23 @ 20:00 to Apr-24 @ 02:00
FM232000 24015KT P6SM SCT030 BKN200
Wind Visibility Clouds
240° at 15 knots Greater than 6 miles
  • Scattered at 3,000' AGL
  • Broken at 20,000' AGL
From Apr-24 @ 02:00 to Apr-24 @ 20:00
FM240200 00000KT P6SM SCT100 BKN200
Visibility Clouds
Greater than 6 miles
  • Scattered at 10,000' AGL
  • Broken at 20,000' AGL
From Apr-24 @ 20:00 to Apr-25 @ 00:00
FM242000 24012KT P6SM SCT025 BKN250
Wind Visibility Clouds
240° at 12 knots Greater than 6 miles
  • Scattered at 2,500' AGL
  • Broken at 25,000' AGL
TAF MMGL 231642Z 2318/2424 30010KT P6SM SCT300 TX32/2322Z TN16/2412Z FM232000 24015KT P6SM SCT030 BKN200 FM240200 00000KT P6SM SCT100 BKN200 FM242000 24012KT P6SM SCT025 BKN250
Issued Apr-23 @ 16:42 UTC
(6 hours ago)
Valid From Apr-23 @ 18:00 UTC
(5 hours ago)
Valid To Apr-25 @ 00:00 UTC
(-1 days ago)
Apr-23 @ 18:00 - Apr-23 @ 20:00
Wind Visibility
300° at 10 knots Greater than 6 miles
Clouds
  • Scattered at 30,000' AGL
From Apr-23 @ 20:00 - Apr-24 @ 02:00
Wind Visibility
240° at 15 knots Greater than 6 miles
Clouds
  • Scattered at 3,000' AGL
  • Broken at 20,000' AGL
From Apr-24 @ 02:00 - Apr-24 @ 20:00
Clouds
  • Scattered at 10,000' AGL
  • Broken at 20,000' AGL
From Apr-24 @ 20:00 - Apr-25 @ 00:00
Wind Visibility
240° at 12 knots Greater than 6 miles
Clouds
  • Scattered at 2,500' AGL
  • Broken at 25,000' AGL